地図

経路データ

SID SEASON NUMBER BASIN SUBBASIN NAME ISO_TIME NATURE LAT LON WMO_WIND WMO_PRES WMO_AGENCY TRACK_TYPE DIST2LAND LANDFALL IFLAG USA_AGENCY USA_ATCF_ID USA_LAT USA_LON USA_RECORD USA_STATUS USA_WIND USA_PRES USA_SSHS USA_R34_NE USA_R34_SE USA_R34_SW USA_R34_NW USA_R50_NE USA_R50_SE USA_R50_SW USA_R50_NW USA_R64_NE USA_R64_SE USA_R64_SW USA_R64_NW USA_POCI USA_ROCI USA_RMW USA_EYE TOKYO_LAT TOKYO_LON TOKYO_GRADE TOKYO_WIND TOKYO_PRES TOKYO_R50_DIR TOKYO_R50_LONG TOKYO_R50_SHORT TOKYO_R30_DIR TOKYO_R30_LONG TOKYO_R30_SHORT TOKYO_LAND CMA_LAT CMA_LON CMA_CAT CMA_WIND CMA_PRES HKO_LAT HKO_LON HKO_CAT HKO_WIND HKO_PRES NEWDELHI_LAT NEWDELHI_LON NEWDELHI_GRADE NEWDELHI_WIND NEWDELHI_PRES NEWDELHI_CI NEWDELHI_DP NEWDELHI_POCI REUNION_LAT REUNION_LON REUNION_TYPE REUNION_WIND REUNION_PRES REUNION_TNUM REUNION_CI REUNION_RMW REUNION_R34_NE REUNION_R34_SE REUNION_R34_SW REUNION_R34_NW REUNION_R50_NE REUNION_R50_SE REUNION_R50_SW REUNION_R50_NW REUNION_R64_NE REUNION_R64_SE REUNION_R64_SW REUNION_R64_NW BOM_LAT BOM_LON BOM_TYPE BOM_WIND BOM_PRES BOM_TNUM BOM_CI BOM_RMW BOM_R34_NE BOM_R34_SE BOM_R34_SW BOM_R34_NW BOM_R50_NE BOM_R50_SE BOM_R50_SW BOM_R50_NW BOM_R64_NE BOM_R64_SE BOM_R64_SW BOM_R64_NW BOM_ROCI BOM_POCI BOM_EYE BOM_POS_METHOD BOM_PRES_METHOD NADI_LAT NADI_LON NADI_CAT NADI_WIND NADI_PRES WELLINGTON_LAT WELLINGTON_LON WELLINGTON_WIND WELLINGTON_PRES DS824_LAT DS824_LON DS824_STAGE DS824_WIND DS824_PRES TD9636_LAT TD9636_LON TD9636_STAGE TD9636_WIND TD9636_PRES TD9635_LAT TD9635_LON TD9635_WIND TD9635_PRES TD9635_ROCI NEUMANN_LAT NEUMANN_LON NEUMANN_CLASS NEUMANN_WIND NEUMANN_PRES MLC_LAT MLC_LON MLC_CLASS MLC_WIND MLC_PRES USA_GUST BOM_GUST BOM_GUST_PER REUNION_GUST REUNION_GUST_PER USA_SEAHGT USA_SEARAD_NE USA_SEARAD_SE USA_SEARAD_SW USA_SEARAD_NW STORM_SPEED STORM_DIR
2003240N14230 2003 63 EP MM JIMENA 2003-08-28 06:00:00 TS 14.0000 230.400 30 1008 hurdat_epa main 2151 2150 O_____________ hurdat_epa EP102003 14.0000 -129.600 TD 30 1008 -1 1010 120 25 11 291
2003240N14230 2003 63 EP MM JIMENA 2003-08-28 09:00:00 TS 14.2052 229.863 main 2172 2172 P_____________ EP102003 14.2052 -130.137 TD 32 1006 -1 1010 135 25 11 291
2003240N14230 2003 63 EP MM JIMENA 2003-08-28 12:00:00 TS 14.4000 229.300 35 1005 hurdat_epa main 2201 2201 O_____________ hurdat_epa EP102003 14.4000 -130.700 TS 35 1005 0 1010 150 25 12 289
2003240N14230 2003 63 EP MM JIMENA 2003-08-28 15:00:00 TS 14.5850 228.700 main 2231 2231 P_____________ EP102003 14.5850 -131.300 TS 37 1003 0 1010 150 25 12 289
2003240N14230 2003 63 EP MM JIMENA 2003-08-28 18:00:00 TS 14.8000 228.100 40 1002 hurdat_epa main 2263 2263 O_____________ hurdat_epa EP102003 14.8000 -131.900 TS 40 1002 0 40 40 40 40 1010 150 25 12 294
2003240N14230 2003 63 EP MM JIMENA 2003-08-28 21:00:00 TS 15.0773 227.542 main 2289 2289 P_____________ EP102003 15.0773 -132.458 TS 45 999 0 40 40 40 40 1010 150 22 12 299
2003240N14230 2003 63 EP MM JIMENA 2003-08-29 00:00:00 TS 15.4000 227.000 50 997 hurdat_epa main 2308 2295 O_____________ hurdat_epa EP102003 15.4000 -133.000 TS 50 997 0 40 40 40 40 1010 150 20 12 303
2003240N14230 2003 63 EP MM JIMENA 2003-08-29 03:00:00 TS 15.7572 226.472 main 2293 2223 P_____________ EP102003 15.7572 -133.528 TS 52 995 0 45 45 45 45 1010 150 20 13 303
2003240N14230 2003 63 EP MM JIMENA 2003-08-29 06:00:00 TS 16.1000 225.900 55 994 hurdat_epa main 2223 2153 O_____________ hurdat_epa EP102003 16.1000 -134.100 TS 55 994 0 50 50 50 50 1010 150 20 14 297
2003240N14230 2003 63 EP MM JIMENA 2003-08-29 09:00:00 TS 16.3800 225.222 main 2142 2065 P_____________ EP102003 16.3800 -134.778 TS 60 990 0 57 52 52 57 1009 150 20 14 290
2003240N14230 2003 63 EP MM JIMENA 2003-08-29 12:00:00 TS 16.6000 224.500 65 987 hurdat_epa main 2065 1987 O_____________ hurdat_epa EP102003 16.6000 -135.500 HU 65 987 1 65 55 55 65 1009 150 20 14 286
2003240N14230 2003 63 EP MM JIMENA 2003-08-29 15:00:00 TS 16.7648 223.800 main 1987 1912 P_____________ EP102003 16.7648 -136.200 HU 70 984 1 65 55 55 65 1008 150 20 14 283
2003240N14230 2003 63 EP MM JIMENA 2003-08-29 18:00:00 TS 16.9000 223.100 75 981 hurdat_epa main 1912 1834 O_____________ hurdat_epa EP102003 16.9000 -136.900 HU 75 981 1 65 55 55 65 1008 150 20 14 283
2003240N14230 2003 63 EP MM JIMENA 2003-08-29 21:00:00 TS 17.0647 222.408 main 1834 1759 P_____________ EP102003 17.0647 -137.592 HU 80 977 1 72 57 57 72 1008 150 20 14 283
2003240N14230 2003 63 EP MM JIMENA 2003-08-30 00:00:00 TS 17.2000 221.700 85 973 hurdat_epa main 1759 1684 O_____________ hurdat_epa EP102003 17.2000 -138.300 HU 85 973 2 80 60 60 80 1008 150 20 14 279
2003240N14230 2003 63 EP MM JIMENA 2003-08-30 03:00:00 TS 17.2723 220.957 main 1684 1601 P_____________ EP102003 17.2723 -139.043 HU 85 973 2 80 60 60 80 1008 150 20 14 274
2003240N14230 2003 63 EP MM JIMENA 2003-08-30 06:00:00 TS 17.3000 220.200 85 973 hurdat_epa main 1601 1528 O_____________ hurdat_epa EP102003 17.3000 -139.800 HU 85 973 2 80 60 60 80 1008 150 20 14 271
2003240N14230 2003 63 EP CP JIMENA 2003-08-30 09:00:00 TS 17.3071 219.457 main 1528 1445 P_____________ EP102003 17.3071 -140.543 HU 85 972 2 80 60 60 80 1008 105 20 14 270
2003240N14230 2003 63 EP CP JIMENA 2003-08-30 12:00:00 TS 17.3000 218.700 85 972 hurdat_epa main 1445 1362 O_____________ hurdat_epa EP102003 17.3000 -141.300 HU 85 972 2 80 60 60 80 1008 60 20 15 269
2003240N14230 2003 63 EP CP JIMENA 2003-08-30 15:00:00 TS 17.2755 217.897 main 1362 1279 P_____________ EP102003 17.2774 -142.100 HU 87 971 2 80 60 60 80 1008 60 20 15 270
2003240N14230 2003 63 EP CP JIMENA 2003-08-30 18:00:00 TS 17.3000 217.100 90 970 hurdat_epa main 1279 1204 O_____________ hurdat_epa EP102003 17.3000 -142.900 HU 90 970 2 80 60 60 80 1008 60 20 15 276
2003240N14230 2003 63 EP CP JIMENA 2003-08-30 21:00:00 TS 17.4345 216.358 main 1204 1116 P_____________ EP102003 17.4345 -143.642 HU 90 973 2 80 60 60 80 1008 60 20 15 282
2003240N14230 2003 63 EP CP JIMENA 2003-08-31 00:00:00 TS 17.6000 215.600 90 976 hurdat_epa main 1116 1031 O_____________ hurdat_epa EP102003 17.6000 -144.400 HU 90 976 2 80 60 60 80 1008 60 20 15 280
2003240N14230 2003 63 EP CP JIMENA 2003-08-31 03:00:00 TS 17.7073 214.765 main 1031 936 P_____________ EP102003 17.7073 -145.235 HU 90 978 2 100 60 60 100 1008 120 20 16 277
2003240N14230 2003 63 EP CP JIMENA 2003-08-31 06:00:00 TS 17.8000 213.900 90 980 hurdat_epa main 936 851 O_____________ hurdat_epa EP102003 17.8000 -146.100 HU 90 980 2 120 60 60 120 1008 180 20 16 277
2003240N14230 2003 63 EP CP JIMENA 2003-08-31 09:00:00 TS 17.8995 213.057 main 851 755 P_____________ EP102003 17.8995 -146.943 HU 87 982 2 120 60 60 120 1008 180 20 16 277
2003240N14230 2003 63 EP CP JIMENA 2003-08-31 12:00:00 TS 18.0000 212.200 85 984 hurdat_epa main 755 671 O_____________ hurdat_epa EP102003 18.0000 -147.800 HU 85 984 2 120 60 60 120 1008 180 20 17 278
2003240N14230 2003 63 EP CP JIMENA 2003-08-31 15:00:00 TS 18.1223 211.300 main 660 566 P_____________ EP102003 18.1223 -148.700 HU 80 987 1 115 60 60 110 1008 180 20 17 277
2003240N14230 2003 63 EP CP JIMENA 2003-08-31 18:00:00 TS 18.2000 210.400 75 991 hurdat_epa main 566 485 O_____________ hurdat_epa EP102003 18.2000 -149.600 HU 75 991 1 110 60 60 100 1008 180 20 17 272
2003240N14230 2003 63 EP CP JIMENA 2003-08-31 21:00:00 TS 18.1870 209.542 main 475 400 P_____________ EP102003 18.1870 -150.458 HU 70 995 1 105 60 60 100 1008 180 20 16 266
2003240N14230 2003 63 EP CP JIMENA 2003-09-01 00:00:00 TS 18.1000 208.700 65 1000 hurdat_epa main 400 330 O_____________ hurdat_epa EP102003 18.1000 -151.300 HU 65 1000 1 100 60 60 100 1008 180 20 16 262
2003240N14230 2003 63 EP CP JIMENA 2003-09-01 03:00:00 TS 17.9723 207.835 main 321 268 P_____________ EP102003 17.9723 -152.165 HU 60 1000 0 100 60 60 100 1008 180 22 16 259
2003240N14230 2003 63 EP CP JIMENA 2003-09-01 06:00:00 TS 17.8000 207.000 55 1000 hurdat_epa main 268 232 O_____________ hurdat_epa EP102003 17.8000 -153.000 TS 55 1000 0 100 60 60 100 1008 180 25 16 256
2003240N14230 2003 63 EP CP JIMENA 2003-09-01 09:00:00 TS 17.6070 206.243 main 228 210 P_____________ EP102003 17.6070 -153.757 TS 50 1001 0 100 60 60 100 1008 180 25 15 254
2003240N14230 2003 63 EP CP JIMENA 2003-09-01 12:00:00 TS 17.4000 205.500 45 1002 hurdat_epa main 210 189 O_____________ hurdat_epa EP102003 17.4000 -154.500 TS 45 1002 0 100 60 60 100 1008 180 25 15 255
2003240N14230 2003 63 EP CP JIMENA 2003-09-01 15:00:00 TS 17.2074 204.700 main 194 191 P_____________ EP102003 17.2074 -155.300 TS 42 1002 0 117 60 60 117 1008 177 22 16 255
2003240N14230 2003 63 EP CP JIMENA 2003-09-01 18:00:00 TS 17.0000 203.900 40 1002 hurdat_epa main 216 216 O_____________ hurdat_epa EP102003 17.0000 -156.100 TS 40 1002 0 135 60 60 135 1008 175 20 16 253
2003240N14230 2003 63 EP CP JIMENA 2003-09-01 21:00:00 TS 16.7497 203.135 main 277 277 P_____________ EP102003 16.7497 -156.865 TS 37 1003 0 127 45 45 127 1008 117 15 15 251
2003240N14230 2003 63 EP CP JIMENA 2003-09-02 00:00:00 TS 16.5000 202.400 35 1005 hurdat_epa main 335 335 O_____________ hurdat_epa EP102003 16.5000 -157.600 TS 35 1005 0 120 30 30 120 1008 60 10 15 252
2003240N14230 2003 63 EP CP JIMENA 2003-09-02 03:00:00 TS 16.2997 201.693 main 400 400 P_____________ EP102003 16.2997 -158.307 TS 35 1005 0 105 32 32 105 1009 60 20 14 253
2003240N14230 2003 63 EP CP JIMENA 2003-09-02 06:00:00 TS 16.1000 201.000 35 1005 hurdat_epa main 469 469 O_____________ hurdat_epa EP102003 16.1000 -159.000 TS 35 1005 0 90 35 35 90 1010 60 30 14 251
2003240N14230 2003 63 EP CP JIMENA 2003-09-02 09:00:00 TS 15.8422 200.307 main 546 546 P_____________ EP102003 15.8422 -159.693 TS 35 1005 0 80 30 30 80 1010 60 27 14 250
2003240N14230 2003 63 EP CP JIMENA 2003-09-02 12:00:00 TS 15.6000 199.600 35 1005 hurdat_epa main 617 617 O_____________ hurdat_epa EP102003 15.6000 -160.400 TS 35 1005 0 70 25 25 70 1010 60 25 15 253
2003240N14230 2003 63 EP CP JIMENA 2003-09-02 15:00:00 TS 15.4273 198.858 main 690 690 P_____________ EP102003 15.4273 -161.142 TS 35 1005 0 70 25 25 70 1010 60 25 15 258
2003240N14230 2003 63 EP CP JIMENA 2003-09-02 18:00:00 TS 15.3000 198.100 35 1005 hurdat_epa main 766 766 O_____________ hurdat_epa EP102003 15.3000 -161.900 TS 35 1005 0 70 25 25 70 1010 60 25 15 261
2003240N14230 2003 63 EP CP JIMENA 2003-09-02 21:00:00 TS 15.1923 197.350 main 815 815 P_____________ EP102003 15.1923 -162.650 TS 32 1007 -1 70 25 25 70 1010 60 25 15 262
2003240N14230 2003 63 EP CP JIMENA 2003-09-03 00:00:00 TS 15.1000 196.600 30 1009 hurdat_epa main 860 860 O_____________ hurdat_epa EP102003 15.1000 -163.400 TD 30 1009 -1 70 25 25 70 1010 60 25 15 262
2003240N14230 2003 63 EP CP JIMENA 2003-09-03 03:00:00 TS 14.9997 195.858 main 904 904 P_____________ EP102003 14.9997 -164.142 TD 30 1009 -1 1010 60 25 15 262
2003240N14230 2003 63 EP CP JIMENA 2003-09-03 06:00:00 TS 14.9000 195.100 30 1009 hurdat_epa main 959 959 O_____________ hurdat_epa EP102003 14.9000 -164.900 TD 30 1009 -1 1010 60 25 15 262
2003240N14230 2003 63 EP CP JIMENA 2003-09-03 09:00:00 TS 14.7847 194.315 main 1017 1017 P_____________ EP102003 14.7847 -165.685 TD 27 1009 -1 1010 60 25 16 263
2003240N14230 2003 63 EP CP JIMENA 2003-09-03 12:00:00 TS 14.7000 193.500 25 1009 hurdat_epa main 1079 1079 O_____________ hurdat_epa EP102003 14.7000 -166.500 TD 25 1009 -1 1010 60 25 16 266
2003240N14230 2003 63 EP CP JIMENA 2003-09-03 15:00:00 TS 14.6847 192.665 main 1136 1136 P_____________ EP102003 14.6847 -167.335 TD 25 1009 -1 1010 60 25 16 270
2003240N14230 2003 63 EP CP JIMENA 2003-09-03 18:00:00 TS 14.7000 191.800 25 1009 hurdat_epa main 1204 1204 O_____________ hurdat_epa EP102003 14.7000 -168.200 TD 25 1009 -1 1010 60 25 17 271
2003240N14230 2003 63 EP CP JIMENA 2003-09-03 21:00:00 TS 14.6997 190.907 main 1276 1276 P_____________ EP102003 14.6997 -169.093 TD 25 1009 -1 1010 60 25 17 270
2003240N14230 2003 63 EP CP JIMENA 2003-09-04 00:00:00 TS 14.7000 190.000 25 1009 hurdat_epa main 1350 1350 O_____________ hurdat_epa EP102003 14.7000 -170.000 TD 25 1009 -1 1010 60 25 18 270
2003240N14230 2003 63 EP CP JIMENA 2003-09-04 03:00:00 TS 14.7072 189.100 main 1427 1427 P_____________ EP102003 14.7072 -170.900 TD 27 1009 -1 1010 60 25 17 270
2003240N14230 2003 63 EP CP JIMENA 2003-09-04 06:00:00 TS 14.7000 188.200 30 1009 hurdat_epa main 1505 1505 O_____________ hurdat_epa EP102003 14.7000 -171.800 TD 30 1009 -1 1010 60 25 17 269
2003240N14230 2003 63 EP CP JIMENA 2003-09-04 09:00:00 TS 14.6796 187.308 main 1586 1586 P_____________ EP102003 14.6796 -172.692 TD 30 1009 -1 1010 60 27 17 267
2003240N14230 2003 63 EP CP JIMENA 2003-09-04 12:00:00 TS 14.6000 186.400 30 1009 hurdat_epa main 1674 1674 O_____________ hurdat_epa EP102003 14.6000 -173.600 TD 30 1009 -1 1010 60 30 18 262
2003240N14230 2003 63 EP CP JIMENA 2003-09-04 15:00:00 TS 14.4297 185.457 main 1768 1768 P_____________ EP102003 14.4297 -174.543 TD 30 1009 -1 1010 70 25 19 258
2003240N14230 2003 63 EP CP JIMENA 2003-09-04 18:00:00 TS 14.2000 184.500 30 1010 hurdat_epa main 1873 1873 O_____________ hurdat_epa EP102003 14.2000 -175.500 TD 30 1010 -1 30 20 20 30 1010 80 20 19 255
2003240N14230 2003 63 EP CP JIMENA 2003-09-04 21:00:00 TS 13.9270 183.557 main 1974 1974 P_____________ EP102003 13.9270 -176.443 TD 30 1009 -1 27 17 17 27 1010 65 17 19 255
2003240N14230 2003 63 EP CP JIMENA 2003-09-05 00:00:00 TS 13.7000 182.600 30 1009 hurdat_epa main 2079 2079 O_____________ hurdat_epa EP102003 13.7000 -177.400 TD 30 1009 -1 25 15 15 25 1010 50 15 20 261
2003240N14230 2003 63 EP CP JIMENA 2003-09-05 03:00:00 TS 13.6238 181.572 main 2179 2179 P_____________ EP102003 13.6277 -178.437 TD 30 1009 -1 1010 45 15 19 267
2003240N14230 2003 63 EP CP JIMENA 2003-09-05 06:00:00 TS 13.6000 180.600 30 1009 hurdat_epa main 2275 2275 O_____________ hurdat_epa EP102003 13.6000 -179.400 TD 30 1009 -1 1010 40 15 16 266
2003240N14230 2003 63 WP MM JIMENA 2003-09-05 09:00:00 TS 13.5066 179.885 main 2347 2347 P_____________ EP102003 13.5066 179.885 TD 27 1009 -1 14 262
2003240N14230 2003 63 WP MM JIMENA 2003-09-05 12:00:00 TS 13.4000 179.200 main 2420 2420 O_____________ hurdat_epa EP102003 13.4000 179.200 TD 25 1009 -1 15 262
2003240N14230 2003 63 WP MM JIMENA 2003-09-05 15:00:00 TS 13.2986 178.355 main 2503 2503 P_____________ EP102003 13.2986 178.355 TD 25 1009 -1 18 263
2003240N14230 2003 63 WP MM JIMENA 2003-09-05 18:00:00 TS 13.2000 177.400 main 2605 O_____________ hurdat_epa EP102003 13.2000 177.400 TD 25 1009 -1 19 264

IBTrACS Databaseについて

本データベースは、米国NOAAが公開する1842年以降の世界の熱帯低気圧のベストトラックデータアーカイブInternational Best Track Archive for Climate Stewardship (IBTrACS)を、ウェブで閲覧しやすい形式に変換したものです。

最終更新日:2021-12-06